sensor_id;sensor_type;location;lat;lon;timestamp;P1;durP1;ratioP1;P2;durP2;ratioP2
14346;SDS011;7257;52.158;9.968;2022-09-29T00:00:19;3.42;;;2.90;;
14346;SDS011;7257;52.158;9.968;2022-09-29T00:00:41;4.20;;;3.50;;
14346;SDS011;7257;52.158;9.968;2022-09-29T00:01:02;4.35;;;3.92;;
14346;SDS011;7257;52.158;9.968;2022-09-29T00:01:23;4.35;;;3.95;;
14346;SDS011;7257;52.158;9.968;2022-09-29T00:01:45;3.88;;;3.50;;
14346;SDS011;7257;52.158;9.968;2022-09-29T00:02:08;3.35;;;2.85;;
14346;SDS011;7257;52.158;9.968;2022-09-29T00:02:29;3.17;;;2.50;;
14346;SDS011;7257;52.158;9.968;2022-09-29T00:02:53;3.03;;;2.30;;
14346;SDS011;7257;52.158;9.968;2022-09-29T00:03:14;2.60;;;2.20;;
14346;SDS011;7257;52.158;9.968;2022-09-29T00:03:37;3.15;;;2.47;;
14346;SDS011;7257;52.158;9.968;2022-09-29T00:03:58;4.97;;;3.20;;
14346;SDS011;7257;52.158;9.968;2022-09-29T00:04:20;5.50;;;3.85;;
14346;SDS011;7257;52.158;9.968;2022-09-29T00:04:45;5.32;;;4.00;;
14346;SDS011;7257;52.158;9.968;2022-09-29T00:05:08;4.10;;;3.13;;
14346;SDS011;7257;52.158;9.968;2022-09-29T00:05:29;3.60;;;2.80;;
14346;SDS011;7257;52.158;9.968;2022-09-29T00:05:59;3.78;;;2.72;;
14346;SDS011;7257;52.158;9.968;2022-09-29T00:06:24;4.85;;;2.78;;
14346;SDS011;7257;52.158;9.968;2022-09-29T00:06:45;6.07;;;3.28;;
14346;SDS011;7257;52.158;9.968;2022-09-29T00:07:06;5.18;;;3.67;;
14346;SDS011;7257;52.158;9.968;2022-09-29T00:07:27;4.47;;;3.65;;
14346;SDS011;7257;52.158;9.968;2022-09-29T00:07:54;3.70;;;3.40;;
14346;SDS011;7257;52.158;9.968;2022-09-29T00:08:16;3.60;;;3.30;;
14346;SDS011;7257;52.158;9.968;2022-09-29T00:08:41;4.50;;;3.85;;
14346;SDS011;7257;52.158;9.968;2022-09-29T00:09:03;4.55;;;3.80;;
14346;SDS011;7257;52.158;9.968;2022-09-29T00:09:28;5.05;;;3.90;;
14346;SDS011;7257;52.158;9.968;2022-09-29T00:09:50;5.03;;;4.35;;
14346;SDS011;7257;52.158;9.968;2022-09-29T00:10:12;4.32;;;3.90;;
14346;SDS011;7257;52.158;9.968;2022-09-29T00:10:34;3.97;;;3.35;;
14346;SDS011;7257;52.158;9.968;2022-09-29T00:10:59;3.50;;;3.00;;
14346;SDS011;7257;52.158;9.968;2022-09-29T00:11:21;3.35;;;2.80;;
14346;SDS011;7257;52.158;9.968;2022-09-29T00:11:52;3.50;;;3.20;;
14346;SDS011;7257;52.158;9.968;2022-09-29T00:12:16;3.60;;;3.17;;
14346;SDS011;7257;52.158;9.968;2022-09-29T00:12:37;2.95;;;2.45;;
14346;SDS011;7257;52.158;9.968;2022-09-29T00:12:59;4.07;;;3.45;;
14346;SDS011;7257;52.158;9.968;2022-09-29T00:13:23;3.90;;;3.50;;
14346;SDS011;7257;52.158;9.968;2022-09-29T00:13:45;3.90;;;3.28;;
14346;SDS011;7257;52.158;9.968;2022-09-29T00:14:13;3.70;;;3.13;;
14346;SDS011;7257;52.158;9.968;2022-09-29T00:14:38;4.05;;;3.65;;
14346;SDS011;7257;52.158;9.968;2022-09-29T00:14:59;3.85;;;3.50;;
14346;SDS011;7257;52.158;9.968;2022-09-29T00:15:20;3.65;;;3.17;;
14346;SDS011;7257;52.158;9.968;2022-09-29T00:15:42;4.50;;;4.10;;
14346;SDS011;7257;52.158;9.968;2022-09-29T00:16:03;4.82;;;4.35;;
14346;SDS011;7257;52.158;9.968;2022-09-29T00:16:25;4.80;;;4.40;;
14346;SDS011;7257;52.158;9.968;2022-09-29T00:16:51;3.97;;;3.20;;
14346;SDS011;7257;52.158;9.968;2022-09-29T00:17:16;3.33;;;2.67;;
14346;SDS011;7257;52.158;9.968;2022-09-29T00:17:37;2.72;;;2.10;;
14346;SDS011;7257;52.158;9.968;2022-09-29T00:17:59;2.53;;;2.33;;
14346;SDS011;7257;52.158;9.968;2022-09-29T00:18:20;3.25;;;2.95;;
14346;SDS011;7257;52.158;9.968;2022-09-29T00:18:41;3.67;;;3.38;;
14346;SDS011;7257;52.158;9.968;2022-09-29T00:19:02;3.72;;;3.42;;
14346;SDS011;7257;52.158;9.968;2022-09-29T00:19:25;3.53;;;3.22;;
14346;SDS011;7257;52.158;9.968;2022-09-29T00:19:47;3.88;;;2.97;;
14346;SDS011;7257;52.158;9.968;2022-09-29T00:20:08;4.18;;;3.05;;
14346;SDS011;7257;52.158;9.968;2022-09-29T00:20:29;4.10;;;3.53;;
14346;SDS011;7257;52.158;9.968;2022-09-29T00:21:00;4.53;;;4.13;;
14346;SDS011;7257;52.158;9.968;2022-09-29T00:21:24;3.80;;;3.50;;
14346;SDS011;7257;52.158;9.968;2022-09-29T00:21:45;3.67;;;2.90;;
14346;SDS011;7257;52.158;9.968;2022-09-29T00:22:06;4.22;;;2.97;;
14346;SDS011;7257;52.158;9.968;2022-09-29T00:22:28;4.20;;;2.70;;
14346;SDS011;7257;52.158;9.968;2022-09-29T00:22:52;3.20;;;2.30;;
14346;SDS011;7257;52.158;9.968;2022-09-29T00:23:21;3.72;;;2.60;;
14346;SDS011;7257;52.158;9.968;2022-09-29T00:23:43;3.50;;;2.80;;
14346;SDS011;7257;52.158;9.968;2022-09-29T00:24:04;2.90;;;2.53;;
14346;SDS011;7257;52.158;9.968;2022-09-29T00:24:26;3.10;;;2.70;;
14346;SDS011;7257;52.158;9.968;2022-09-29T00:24:47;3.75;;;3.30;;
14346;SDS011;7257;52.158;9.968;2022-09-29T00:25:08;4.50;;;3.75;;
14346;SDS011;7257;52.158;9.968;2022-09-29T00:25:28;4.43;;;3.97;;
14346;SDS011;7257;52.158;9.968;2022-09-29T00:25:57;4.82;;;4.03;;
14346;SDS011;7257;52.158;9.968;2022-09-29T00:26:23;4.00;;;3.60;;
14346;SDS011;7257;52.158;9.968;2022-09-29T00:26:44;3.85;;;3.45;;
14346;SDS011;7257;52.158;9.968;2022-09-29T00:27:06;3.97;;;3.55;;
14346;SDS011;7257;52.158;9.968;2022-09-29T00:27:29;3.30;;;3.00;;
14346;SDS011;7257;52.158;9.968;2022-09-29T00:27:49;3.15;;;2.85;;
14346;SDS011;7257;52.158;9.968;2022-09-29T00:28:13;3.30;;;3.00;;
14346;SDS011;7257;52.158;9.968;2022-09-29T00:28:35;3.33;;;3.03;;
14346;SDS011;7257;52.158;9.968;2022-09-29T00:28:57;3.00;;;2.60;;
14346;SDS011;7257;52.158;9.968;2022-09-29T00:29:19;2.97;;;2.67;;
14346;SDS011;7257;52.158;9.968;2022-09-29T00:29:40;3.42;;;3.13;;
14346;SDS011;7257;52.158;9.968;2022-09-29T00:30:05;3.72;;;3.42;;
14346;SDS011;7257;52.158;9.968;2022-09-29T00:30:26;3.53;;;3.22;;
14346;SDS011;7257;52.158;9.968;2022-09-29T00:30:47;4.18;;;2.85;;
14346;SDS011;7257;52.158;9.968;2022-09-29T00:31:08;5.25;;;3.00;;
14346;SDS011;7257;52.158;9.968;2022-09-29T00:31:32;5.25;;;3.13;;
14346;SDS011;7257;52.158;9.968;2022-09-29T00:31:53;3.45;;;2.80;;
14346;SDS011;7257;52.158;9.968;2022-09-29T00:32:14;2.90;;;2.60;;
14346;SDS011;7257;52.158;9.968;2022-09-29T00:32:35;2.80;;;2.60;;
14346;SDS011;7257;52.158;9.968;2022-09-29T00:32:57;3.05;;;2.75;;
14346;SDS011;7257;52.158;9.968;2022-09-29T00:33:18;3.20;;;2.75;;
14346;SDS011;7257;52.158;9.968;2022-09-29T00:33:38;3.35;;;2.60;;
14346;SDS011;7257;52.158;9.968;2022-09-29T00:34:00;3.15;;;2.25;;
14346;SDS011;7257;52.158;9.968;2022-09-29T00:34:22;3.20;;;2.40;;
14346;SDS011;7257;52.158;9.968;2022-09-29T00:34:43;4.85;;;3.10;;
14346;SDS011;7257;52.158;9.968;2022-09-29T00:35:06;5.03;;;3.58;;
14346;SDS011;7257;52.158;9.968;2022-09-29T00:35:29;4.50;;;3.25;;
14346;SDS011;7257;52.158;9.968;2022-09-29T00:35:59;4.05;;;2.75;;
14346;SDS011;7257;52.158;9.968;2022-09-29T00:36:24;2.60;;;2.30;;
14346;SDS011;7257;52.158;9.968;2022-09-29T00:36:48;3.00;;;2.67;;
14346;SDS011;7257;52.158;9.968;2022-09-29T00:37:08;2.95;;;2.58;;
14346;SDS011;7257;52.158;9.968;2022-09-29T00:37:31;2.85;;;2.42;;
14346;SDS011;7257;52.158;9.968;2022-09-29T00:37:53;2.90;;;2.60;;
14346;SDS011;7257;52.158;9.968;2022-09-29T00:38:15;2.90;;;2.67;;
14346;SDS011;7257;52.158;9.968;2022-09-29T00:38:36;2.67;;;2.47;;
14346;SDS011;7257;52.158;9.968;2022-09-29T00:38:57;2.63;;;2.40;;
14346;SDS011;7257;52.158;9.968;2022-09-29T00:39:19;3.38;;;2.80;;
14346;SDS011;7257;52.158;9.968;2022-09-29T00:39:40;4.40;;;3.20;;
14346;SDS011;7257;52.158;9.968;2022-09-29T00:40:01;4.30;;;3.15;;
14346;SDS011;7257;52.158;9.968;2022-09-29T00:40:23;3.70;;;3.05;;
14346;SDS011;7257;52.158;9.968;2022-09-29T00:40:45;3.33;;;2.83;;
14346;SDS011;7257;52.158;9.968;2022-09-29T00:41:06;4.88;;;3.35;;
14346;SDS011;7257;52.158;9.968;2022-09-29T00:41:32;5.10;;;3.63;;
14346;SDS011;7257;52.158;9.968;2022-09-29T00:41:54;4.60;;;3.60;;
14346;SDS011;7257;52.158;9.968;2022-09-29T00:42:17;3.60;;;3.13;;
14346;SDS011;7257;52.158;9.968;2022-09-29T00:42:40;3.72;;;2.97;;
14346;SDS011;7257;52.158;9.968;2022-09-29T00:43:01;3.35;;;2.42;;
14346;SDS011;7257;52.158;9.968;2022-09-29T00:43:23;3.57;;;2.33;;
14346;SDS011;7257;52.158;9.968;2022-09-29T00:44:05;3.33;;;2.60;;
14346;SDS011;7257;52.158;9.968;2022-09-29T00:45:39;3.10;;;2.80;;
14346;SDS011;7257;52.158;9.968;2022-09-29T00:46:01;3.80;;;3.40;;
14346;SDS011;7257;52.158;9.968;2022-09-29T00:46:24;4.00;;;3.55;;
14346;SDS011;7257;52.158;9.968;2022-09-29T00:46:56;3.90;;;2.90;;
14346;SDS011;7257;52.158;9.968;2022-09-29T00:47:20;4.30;;;3.30;;
14346;SDS011;7257;52.158;9.968;2022-09-29T00:47:46;4.90;;;3.33;;
14346;SDS011;7257;52.158;9.968;2022-09-29T00:48:16;4.63;;;3.00;;
14346;SDS011;7257;52.158;9.968;2022-09-29T00:48:41;4.15;;;3.30;;
14346;SDS011;7257;52.158;9.968;2022-09-29T00:49:06;4.05;;;3.47;;
14346;SDS011;7257;52.158;9.968;2022-09-29T00:49:36;4.90;;;4.40;;
14346;SDS011;7257;52.158;9.968;2022-09-29T00:50:03;4.50;;;4.07;;
14346;SDS011;7257;52.158;9.968;2022-09-29T00:50:30;4.30;;;3.30;;
14346;SDS011;7257;52.158;9.968;2022-09-29T00:51:03;5.13;;;3.85;;
14346;SDS011;7257;52.158;9.968;2022-09-29T00:51:24;4.68;;;3.50;;
14346;SDS011;7257;52.158;9.968;2022-09-29T00:51:47;4.03;;;3.08;;
14346;SDS011;7257;52.158;9.968;2022-09-29T00:52:14;3.63;;;3.20;;
14346;SDS011;7257;52.158;9.968;2022-09-29T00:52:39;4.13;;;3.20;;
14346;SDS011;7257;52.158;9.968;2022-09-29T00:53:04;4.82;;;3.10;;
14346;SDS011;7257;52.158;9.968;2022-09-29T00:53:31;5.45;;;3.60;;
14346;SDS011;7257;52.158;9.968;2022-09-29T00:53:53;5.60;;;3.60;;
14346;SDS011;7257;52.158;9.968;2022-09-29T00:54:19;5.80;;;3.78;;
14346;SDS011;7257;52.158;9.968;2022-09-29T00:54:48;5.43;;;4.30;;
14346;SDS011;7257;52.158;9.968;2022-09-29T00:55:13;4.05;;;3.65;;
14346;SDS011;7257;52.158;9.968;2022-09-29T00:55:40;3.65;;;3.30;;
14346;SDS011;7257;52.158;9.968;2022-09-29T00:56:07;5.00;;;4.10;;
14346;SDS011;7257;52.158;9.968;2022-09-29T00:56:31;5.03;;;4.10;;
14346;SDS011;7257;52.158;9.968;2022-09-29T00:56:54;4.50;;;3.70;;
14346;SDS011;7257;52.158;9.968;2022-09-29T00:57:18;4.20;;;3.42;;
14346;SDS011;7257;52.158;9.968;2022-09-29T00:57:45;4.78;;;3.72;;
14346;SDS011;7257;52.158;9.968;2022-09-29T00:58:10;5.32;;;3.45;;
14346;SDS011;7257;52.158;9.968;2022-09-29T00:58:36;4.35;;;2.88;;
14346;SDS011;7257;52.158;9.968;2022-09-29T00:59:03;4.18;;;2.70;;
14346;SDS011;7257;52.158;9.968;2022-09-29T00:59:30;4.57;;;2.85;;
14346;SDS011;7257;52.158;9.968;2022-09-29T00:59:55;5.10;;;3.72;;
14346;SDS011;7257;52.158;9.968;2022-09-29T01:00:21;5.90;;;4.40;;
14346;SDS011;7257;52.158;9.968;2022-09-29T01:00:42;5.78;;;3.90;;
14346;SDS011;7257;52.158;9.968;2022-09-29T01:01:05;5.32;;;3.97;;
14346;SDS011;7257;52.158;9.968;2022-09-29T01:01:27;6.60;;;3.88;;
14346;SDS011;7257;52.158;9.968;2022-09-29T01:01:50;5.78;;;3.35;;
14346;SDS011;7257;52.158;9.968;2022-09-29T01:02:12;4.70;;;3.20;;
14346;SDS011;7257;52.158;9.968;2022-09-29T01:02:35;4.10;;;3.30;;
14346;SDS011;7257;52.158;9.968;2022-09-29T01:02:58;4.90;;;4.20;;
14346;SDS011;7257;52.158;9.968;2022-09-29T01:03:21;6.20;;;4.57;;
14346;SDS011;7257;52.158;9.968;2022-09-29T01:03:44;6.45;;;4.40;;
14346;SDS011;7257;52.158;9.968;2022-09-29T01:04:09;6.13;;;3.83;;
14346;SDS011;7257;52.158;9.968;2022-09-29T01:04:33;7.13;;;4.63;;
14346;SDS011;7257;52.158;9.968;2022-09-29T01:04:56;8.10;;;4.90;;
14346;SDS011;7257;52.158;9.968;2022-09-29T01:05:19;6.25;;;4.25;;
14346;SDS011;7257;52.158;9.968;2022-09-29T01:05:46;4.82;;;4.10;;
14346;SDS011;7257;52.158;9.968;2022-09-29T01:06:11;4.25;;;3.85;;
14346;SDS011;7257;52.158;9.968;2022-09-29T01:06:36;4.53;;;4.00;;
14346;SDS011;7257;52.158;9.968;2022-09-29T01:07:00;5.10;;;4.32;;
14346;SDS011;7257;52.158;9.968;2022-09-29T01:07:23;4.90;;;4.20;;
14346;SDS011;7257;52.158;9.968;2022-09-29T01:07:46;4.63;;;3.88;;
14346;SDS011;7257;52.158;9.968;2022-09-29T01:08:08;5.00;;;3.70;;
14346;SDS011;7257;52.158;9.968;2022-09-29T01:08:35;4.75;;;3.60;;
14346;SDS011;7257;52.158;9.968;2022-09-29T01:09:03;4.40;;;4.00;;
14346;SDS011;7257;52.158;9.968;2022-09-29T01:09:26;4.40;;;4.00;;
14346;SDS011;7257;52.158;9.968;2022-09-29T01:09:51;4.40;;;3.72;;
14346;SDS011;7257;52.158;9.968;2022-09-29T01:10:16;4.03;;;3.63;;
14346;SDS011;7257;52.158;9.968;2022-09-29T01:10:37;4.20;;;3.72;;
14346;SDS011;7257;52.158;9.968;2022-09-29T01:11:00;4.70;;;4.22;;
14346;SDS011;7257;52.158;9.968;2022-09-29T01:11:25;5.10;;;4.60;;
14346;SDS011;7257;52.158;9.968;2022-09-29T01:11:48;5.03;;;4.20;;
14346;SDS011;7257;52.158;9.968;2022-09-29T01:12:11;4.88;;;3.53;;
14346;SDS011;7257;52.158;9.968;2022-09-29T01:12:32;6.57;;;3.92;;
14346;SDS011;7257;52.158;9.968;2022-09-29T01:12:56;6.05;;;3.85;;
14346;SDS011;7257;52.158;9.968;2022-09-29T01:13:18;5.43;;;3.97;;
14346;SDS011;7257;52.158;9.968;2022-09-29T01:13:41;5.07;;;4.43;;
14346;SDS011;7257;52.158;9.968;2022-09-29T01:14:03;4.78;;;4.13;;
14346;SDS011;7257;52.158;9.968;2022-09-29T01:14:27;4.50;;;3.63;;
14346;SDS011;7257;52.158;9.968;2022-09-29T01:14:51;3.90;;;3.47;;
14346;SDS011;7257;52.158;9.968;2022-09-29T01:15:15;4.75;;;3.97;;
14346;SDS011;7257;52.158;9.968;2022-09-29T01:15:39;5.05;;;3.65;;
14346;SDS011;7257;52.158;9.968;2022-09-29T01:16:06;5.20;;;3.90;;
14346;SDS011;7257;52.158;9.968;2022-09-29T01:16:28;4.20;;;3.80;;
14346;SDS011;7257;52.158;9.968;2022-09-29T01:16:50;4.65;;;3.70;;
14346;SDS011;7257;52.158;9.968;2022-09-29T01:17:12;4.32;;;3.92;;
14346;SDS011;7257;52.158;9.968;2022-09-29T01:17:33;4.88;;;4.40;;
14346;SDS011;7257;52.158;9.968;2022-09-29T01:17:54;4.93;;;4.43;;
14346;SDS011;7257;52.158;9.968;2022-09-29T01:18:15;4.60;;;3.90;;
14346;SDS011;7257;52.158;9.968;2022-09-29T01:18:36;4.28;;;3.65;;
14346;SDS011;7257;52.158;9.968;2022-09-29T01:18:59;3.55;;;3.15;;
14346;SDS011;7257;52.158;9.968;2022-09-29T01:19:22;3.78;;;3.25;;
14346;SDS011;7257;52.158;9.968;2022-09-29T01:19:50;5.53;;;3.58;;
14346;SDS011;7257;52.158;9.968;2022-09-29T01:20:18;6.55;;;3.60;;
14346;SDS011;7257;52.158;9.968;2022-09-29T01:20:44;6.47;;;3.45;;
14346;SDS011;7257;52.158;9.968;2022-09-29T01:21:12;4.50;;;3.50;;
14346;SDS011;7257;52.158;9.968;2022-09-29T01:21:42;4.32;;;3.30;;
14346;SDS011;7257;52.158;9.968;2022-09-29T01:22:13;4.70;;;3.10;;
14346;SDS011;7257;52.158;9.968;2022-09-29T01:23:07;4.18;;;3.42;;
14346;SDS011;7257;52.158;9.968;2022-09-29T01:23:53;5.10;;;3.00;;
14346;SDS011;7257;52.158;9.968;2022-09-29T01:25:34;4.57;;;3.50;;
14346;SDS011;7257;52.158;9.968;2022-09-29T01:26:34;4.13;;;3.25;;
14346;SDS011;7257;52.158;9.968;2022-09-29T01:28:12;4.28;;;3.30;;
14346;SDS011;7257;52.158;9.968;2022-09-29T01:29:10;4.13;;;3.38;;
14346;SDS011;7257;52.158;9.968;2022-09-29T01:29:54;4.68;;;3.10;;
14346;SDS011;7257;52.158;9.968;2022-09-29T01:30:41;4.55;;;3.67;;
14346;SDS011;7257;52.158;9.968;2022-09-29T01:31:13;3.40;;;3.05;;
14346;SDS011;7257;52.158;9.968;2022-09-29T01:31:42;4.03;;;3.65;;
14346;SDS011;7257;52.158;9.968;2022-09-29T01:32:13;4.40;;;4.00;;
14346;SDS011;7257;52.158;9.968;2022-09-29T01:32:47;4.07;;;3.20;;
14346;SDS011;7257;52.158;9.968;2022-09-29T01:33:33;4.95;;;4.47;;
14346;SDS011;7257;52.158;9.968;2022-09-29T01:34:00;3.92;;;3.58;;
14346;SDS011;7257;52.158;9.968;2022-09-29T01:34:29;4.07;;;3.65;;
14346;SDS011;7257;52.158;9.968;2022-09-29T01:35:01;6.20;;;4.15;;
14346;SDS011;7257;52.158;9.968;2022-09-29T01:35:29;6.47;;;4.43;;
14346;SDS011;7257;52.158;9.968;2022-09-29T01:35:59;4.63;;;4.00;;
14346;SDS011;7257;52.158;9.968;2022-09-29T01:36:34;4.43;;;3.63;;
14346;SDS011;7257;52.158;9.968;2022-09-29T01:37:04;4.13;;;3.58;;
14346;SDS011;7257;52.158;9.968;2022-09-29T01:37:36;3.78;;;3.38;;
14346;SDS011;7257;52.158;9.968;2022-09-29T01:38:14;6.15;;;4.00;;
14346;SDS011;7257;52.158;9.968;2022-09-29T01:38:49;7.03;;;4.43;;
14346;SDS011;7257;52.158;9.968;2022-09-29T01:39:18;5.05;;;4.50;;
14346;SDS011;7257;52.158;9.968;2022-09-29T01:39:53;4.80;;;4.03;;
14346;SDS011;7257;52.158;9.968;2022-09-29T01:40:21;6.28;;;3.90;;
14346;SDS011;7257;52.158;9.968;2022-09-29T01:40:49;6.50;;;3.63;;
14346;SDS011;7257;52.158;9.968;2022-09-29T01:41:20;4.78;;;3.40;;
14346;SDS011;7257;52.158;9.968;2022-09-29T01:41:48;4.43;;;4.03;;
14346;SDS011;7257;52.158;9.968;2022-09-29T01:42:14;4.60;;;4.00;;
14346;SDS011;7257;52.158;9.968;2022-09-29T01:42:42;5.60;;;4.18;;
14346;SDS011;7257;52.158;9.968;2022-09-29T01:43:12;5.40;;;4.40;;
14346;SDS011;7257;52.158;9.968;2022-09-29T01:43:39;5.00;;;4.50;;
14346;SDS011;7257;52.158;9.968;2022-09-29T01:44:08;5.25;;;4.72;;
14346;SDS011;7257;52.158;9.968;2022-09-29T01:44:38;6.28;;;5.10;;
14346;SDS011;7257;52.158;9.968;2022-09-29T01:45:09;5.93;;;5.15;;
14346;SDS011;7257;52.158;9.968;2022-09-29T01:45:35;4.82;;;4.18;;
14346;SDS011;7257;52.158;9.968;2022-09-29T01:46:04;5.10;;;4.10;;
14346;SDS011;7257;52.158;9.968;2022-09-29T01:46:29;6.68;;;4.80;;
14346;SDS011;7257;52.158;9.968;2022-09-29T01:46:54;6.10;;;4.70;;
14346;SDS011;7257;52.158;9.968;2022-09-29T01:47:20;5.53;;;4.80;;
14346;SDS011;7257;52.158;9.968;2022-09-29T01:47:46;5.20;;;4.53;;
14346;SDS011;7257;52.158;9.968;2022-09-29T01:48:12;5.28;;;4.20;;
14346;SDS011;7257;52.158;9.968;2022-09-29T01:48:41;5.25;;;4.30;;
14346;SDS011;7257;52.158;9.968;2022-09-29T01:49:06;4.40;;;3.80;;
14346;SDS011;7257;52.158;9.968;2022-09-29T01:49:29;4.10;;;3.38;;
14346;SDS011;7257;52.158;9.968;2022-09-29T01:49:55;4.50;;;3.88;;
14346;SDS011;7257;52.158;9.968;2022-09-29T01:50:22;5.68;;;4.32;;
14346;SDS011;7257;52.158;9.968;2022-09-29T01:50:47;5.80;;;4.80;;
14346;SDS011;7257;52.158;9.968;2022-09-29T01:51:14;4.95;;;4.40;;
14346;SDS011;7257;52.158;9.968;2022-09-29T01:51:38;4.60;;;4.03;;
14346;SDS011;7257;52.158;9.968;2022-09-29T01:52:05;4.40;;;4.00;;
14346;SDS011;7257;52.158;9.968;2022-09-29T01:52:29;4.32;;;3.92;;
14346;SDS011;7257;52.158;9.968;2022-09-29T01:52:54;5.07;;;3.97;;
14346;SDS011;7257;52.158;9.968;2022-09-29T01:53:19;5.38;;;4.75;;
14346;SDS011;7257;52.158;9.968;2022-09-29T01:53:46;5.10;;;4.60;;
14346;SDS011;7257;52.158;9.968;2022-09-29T01:54:11;5.22;;;4.00;;
14346;SDS011;7257;52.158;9.968;2022-09-29T01:54:40;5.70;;;4.53;;
14346;SDS011;7257;52.158;9.968;2022-09-29T01:55:06;5.97;;;4.30;;
14346;SDS011;7257;52.158;9.968;2022-09-29T01:55:30;5.32;;;4.00;;
14346;SDS011;7257;52.158;9.968;2022-09-29T01:55:55;5.30;;;4.55;;
14346;SDS011;7257;52.158;9.968;2022-09-29T01:56:22;5.30;;;4.40;;
14346;SDS011;7257;52.158;9.968;2022-09-29T01:56:49;4.43;;;3.65;;
14346;SDS011;7257;52.158;9.968;2022-09-29T01:57:16;4.10;;;3.60;;
14346;SDS011;7257;52.158;9.968;2022-09-29T01:57:42;5.00;;;3.80;;
14346;SDS011;7257;52.158;9.968;2022-09-29T01:58:06;6.32;;;4.00;;
14346;SDS011;7257;52.158;9.968;2022-09-29T01:58:33;5.10;;;3.85;;
14346;SDS011;7257;52.158;9.968;2022-09-29T01:59:03;5.30;;;4.10;;
14346;SDS011;7257;52.158;9.968;2022-09-29T01:59:31;7.88;;;4.60;;
14346;SDS011;7257;52.158;9.968;2022-09-29T01:59:57;7.85;;;4.80;;
14346;SDS011;7257;52.158;9.968;2022-09-29T02:00:24;5.43;;;4.40;;
14346;SDS011;7257;52.158;9.968;2022-09-29T02:00:52;4.75;;;4.10;;
14346;SDS011;7257;52.158;9.968;2022-09-29T02:01:18;4.90;;;4.18;;
14346;SDS011;7257;52.158;9.968;2022-09-29T02:01:43;5.75;;;4.60;;
14346;SDS011;7257;52.158;9.968;2022-09-29T02:02:11;6.97;;;5.20;;
14346;SDS011;7257;52.158;9.968;2022-09-29T02:02:36;6.57;;;5.20;;
14346;SDS011;7257;52.158;9.968;2022-09-29T02:03:07;6.57;;;5.15;;
14346;SDS011;7257;52.158;9.968;2022-09-29T02:03:37;6.63;;;5.00;;
14346;SDS011;7257;52.158;9.968;2022-09-29T02:04:04;7.05;;;4.93;;
14346;SDS011;7257;52.158;9.968;2022-09-29T02:04:35;7.38;;;5.18;;
14346;SDS011;7257;52.158;9.968;2022-09-29T02:05:03;6.93;;;5.43;;
14346;SDS011;7257;52.158;9.968;2022-09-29T02:05:30;6.30;;;5.38;;
14346;SDS011;7257;52.158;9.968;2022-09-29T02:05:57;5.50;;;4.90;;
14346;SDS011;7257;52.158;9.968;2022-09-29T02:06:21;5.70;;;5.07;;
14346;SDS011;7257;52.158;9.968;2022-09-29T02:06:46;6.72;;;5.22;;
14346;SDS011;7257;52.158;9.968;2022-09-29T02:07:15;6.95;;;5.35;;
14346;SDS011;7257;52.158;9.968;2022-09-29T02:07:41;5.68;;;4.90;;
14346;SDS011;7257;52.158;9.968;2022-09-29T02:08:06;5.65;;;4.68;;
14346;SDS011;7257;52.158;9.968;2022-09-29T02:08:32;5.20;;;4.40;;
14346;SDS011;7257;52.158;9.968;2022-09-29T02:08:57;4.95;;;4.43;;
14346;SDS011;7257;52.158;9.968;2022-09-29T02:09:24;6.50;;;4.60;;
14346;SDS011;7257;52.158;9.968;2022-09-29T02:09:51;7.65;;;5.25;;
14346;SDS011;7257;52.158;9.968;2022-09-29T02:10:20;7.13;;;5.70;;
14346;SDS011;7257;52.158;9.968;2022-09-29T02:10:45;6.63;;;5.40;;
14346;SDS011;7257;52.158;9.968;2022-09-29T02:11:12;7.32;;;4.70;;
14346;SDS011;7257;52.158;9.968;2022-09-29T02:11:33;6.65;;;4.40;;
14346;SDS011;7257;52.158;9.968;2022-09-29T02:11:58;6.47;;;4.20;;
14346;SDS011;7257;52.158;9.968;2022-09-29T02:12:22;5.30;;;4.80;;
14346;SDS011;7257;52.158;9.968;2022-09-29T02:12:47;5.75;;;5.22;;
14346;SDS011;7257;52.158;9.968;2022-09-29T02:13:12;5.47;;;4.78;;
14346;SDS011;7257;52.158;9.968;2022-09-29T02:13:36;5.90;;;4.68;;
14346;SDS011;7257;52.158;9.968;2022-09-29T02:14:01;5.15;;;4.50;;
14346;SDS011;7257;52.158;9.968;2022-09-29T02:14:26;5.30;;;4.80;;
14346;SDS011;7257;52.158;9.968;2022-09-29T02:14:50;5.80;;;4.70;;
14346;SDS011;7257;52.158;9.968;2022-09-29T02:15:14;5.40;;;4.45;;
14346;SDS011;7257;52.158;9.968;2022-09-29T02:15:42;5.35;;;4.68;;
14346;SDS011;7257;52.158;9.968;2022-09-29T02:16:07;5.97;;;5.38;;
14346;SDS011;7257;52.158;9.968;2022-09-29T02:16:34;6.20;;;5.60;;
14346;SDS011;7257;52.158;9.968;2022-09-29T02:16:59;6.80;;;5.22;;
14346;SDS011;7257;52.158;9.968;2022-09-29T02:17:27;7.25;;;4.93;;
14346;SDS011;7257;52.158;9.968;2022-09-29T02:17:50;5.85;;;4.72;;
14346;SDS011;7257;52.158;9.968;2022-09-29T02:18:17;5.88;;;5.10;;
14346;SDS011;7257;52.158;9.968;2022-09-29T02:18:44;6.78;;;5.70;;
14346;SDS011;7257;52.158;9.968;2022-09-29T02:19:12;7.47;;;5.55;;
14346;SDS011;7257;52.158;9.968;2022-09-29T02:19:39;8.05;;;4.93;;
14346;SDS011;7257;52.158;9.968;2022-09-29T02:20:02;6.57;;;4.70;;
14346;SDS011;7257;52.158;9.968;2022-09-29T02:20:25;5.78;;;4.57;;
14346;SDS011;7257;52.158;9.968;2022-09-29T02:20:46;5.47;;;4.60;;
14346;SDS011;7257;52.158;9.968;2022-09-29T02:21:08;6.15;;;5.03;;
14346;SDS011;7257;52.158;9.968;2022-09-29T02:21:29;6.40;;;5.53;;
14346;SDS011;7257;52.158;9.968;2022-09-29T02:21:50;6.57;;;5.30;;
14346;SDS011;7257;52.158;9.968;2022-09-29T02:22:13;5.65;;;4.57;;
14346;SDS011;7257;52.158;9.968;2022-09-29T02:22:38;5.03;;;4.18;;
14346;SDS011;7257;52.158;9.968;2022-09-29T02:23:00;5.15;;;4.65;;
14346;SDS011;7257;52.158;9.968;2022-09-29T02:23:22;5.90;;;5.30;;
14346;SDS011;7257;52.158;9.968;2022-09-29T02:23:44;6.25;;;5.65;;
14346;SDS011;7257;52.158;9.968;2022-09-29T02:24:05;6.07;;;5.27;;
14346;SDS011;7257;52.158;9.968;2022-09-29T02:24:26;5.45;;;4.60;;
14346;SDS011;7257;52.158;9.968;2022-09-29T02:24:47;5.28;;;4.10;;
14346;SDS011;7257;52.158;9.968;2022-09-29T02:25:13;7.35;;;4.55;;
14346;SDS011;7257;52.158;9.968;2022-09-29T02:25:38;8.20;;;5.00;;
14346;SDS011;7257;52.158;9.968;2022-09-29T02:26:00;8.10;;;5.15;;
14346;SDS011;7257;52.158;9.968;2022-09-29T02:26:23;6.13;;;4.90;;
14346;SDS011;7257;52.158;9.968;2022-09-29T02:26:49;5.80;;;5.18;;
14346;SDS011;7257;52.158;9.968;2022-09-29T02:27:10;5.95;;;4.90;;
14346;SDS011;7257;52.158;9.968;2022-09-29T02:27:32;5.60;;;4.85;;
14346;SDS011;7257;52.158;9.968;2022-09-29T02:27:54;6.85;;;4.82;;
14346;SDS011;7257;52.158;9.968;2022-09-29T02:28:15;7.90;;;5.47;;
14346;SDS011;7257;52.158;9.968;2022-09-29T02:28:37;8.60;;;5.63;;
14346;SDS011;7257;52.158;9.968;2022-09-29T02:28:58;7.88;;;5.55;;
14346;SDS011;7257;52.158;9.968;2022-09-29T02:29:22;6.00;;;4.97;;
14346;SDS011;7257;52.158;9.968;2022-09-29T02:29:43;6.22;;;4.85;;
14346;SDS011;7257;52.158;9.968;2022-09-29T02:30:04;6.35;;;4.93;;
14346;SDS011;7257;52.158;9.968;2022-09-29T02:30:26;6.35;;;4.43;;
14346;SDS011;7257;52.158;9.968;2022-09-29T02:30:48;6.15;;;4.57;;
14346;SDS011;7257;52.158;9.968;2022-09-29T02:31:10;6.47;;;4.90;;
14346;SDS011;7257;52.158;9.968;2022-09-29T02:31:33;6.70;;;4.95;;
14346;SDS011;7257;52.158;9.968;2022-09-29T02:31:55;7.88;;;4.55;;
14346;SDS011;7257;52.158;9.968;2022-09-29T02:32:20;7.75;;;4.40;;
14346;SDS011;7257;52.158;9.968;2022-09-29T02:32:42;7.05;;;4.75;;
14346;SDS011;7257;52.158;9.968;2022-09-29T02:33:05;6.90;;;4.75;;
14346;SDS011;7257;52.158;9.968;2022-09-29T02:33:36;5.63;;;4.50;;
14346;SDS011;7257;52.158;9.968;2022-09-29T02:33:57;4.70;;;4.20;;
14346;SDS011;7257;52.158;9.968;2022-09-29T02:34:19;5.32;;;4.50;;
14346;SDS011;7257;52.158;9.968;2022-09-29T02:34:42;6.30;;;5.10;;
14346;SDS011;7257;52.158;9.968;2022-09-29T02:35:07;6.18;;;5.07;;
14346;SDS011;7257;52.158;9.968;2022-09-29T02:36:23;5.35;;;4.35;;
14346;SDS011;7257;52.158;9.968;2022-09-29T02:36:54;5.35;;;4.32;;
14346;SDS011;7257;52.158;9.968;2022-09-29T02:37:23;6.30;;;5.20;;
14346;SDS011;7257;52.158;9.968;2022-09-29T02:37:57;6.13;;;5.13;;
14346;SDS011;7257;52.158;9.968;2022-09-29T02:38:24;7.07;;;4.90;;